createdAt,value
2022-11-06T00:02:57.885Z,9.80
2022-11-06T00:06:59.139Z,9.70
2022-11-06T00:11:00.895Z,9.70
2022-11-06T00:15:02.101Z,9.80
2022-11-06T00:19:03.394Z,9.70
2022-11-06T00:23:04.524Z,9.70
2022-11-06T00:27:05.724Z,9.80
2022-11-06T00:31:13.262Z,9.70
2022-11-06T00:35:14.679Z,9.50
2022-11-06T00:39:16.156Z,9.20
2022-11-06T00:43:17.380Z,9.00
2022-11-06T00:47:18.919Z,9.20
2022-11-06T00:51:23.401Z,9.30
2022-11-06T00:55:24.715Z,9.30
2022-11-06T00:59:26.114Z,9.30
2022-11-06T01:03:27.297Z,9.30
2022-11-06T01:07:28.389Z,9.20
2022-11-06T01:11:52.401Z,9.20
2022-11-06T01:15:36.417Z,9.20
2022-11-06T01:19:37.742Z,9.30
2022-11-06T01:23:39.241Z,9.40
2022-11-06T01:27:40.414Z,9.40
2022-11-06T01:31:42.144Z,9.40
2022-11-06T01:35:44.933Z,9.40
2022-11-06T01:39:48.404Z,9.40
2022-11-06T01:43:56.394Z,9.40
2022-11-06T01:47:57.804Z,9.30
2022-11-06T01:52:02.696Z,9.20
2022-11-06T01:56:07.126Z,9.20
2022-11-06T02:00:09.425Z,9.10
2022-11-06T02:04:16.908Z,8.90
2022-11-06T02:08:20.888Z,8.70
2022-11-06T02:12:37.764Z,8.70
2022-11-06T02:16:57.829Z,8.60
2022-11-06T02:21:25.330Z,8.60
2022-11-06T02:26:02.680Z,8.50
2022-11-06T02:30:12.602Z,8.60
2022-11-06T02:34:15.961Z,8.50
2022-11-06T02:38:23.998Z,8.40
2022-11-06T02:42:27.824Z,8.40
2022-11-06T02:46:35.849Z,8.40
2022-11-06T02:50:40.813Z,8.40
2022-11-06T02:54:45.701Z,8.30
2022-11-06T02:58:53.789Z,8.20
2022-11-06T03:03:01.821Z,8.10
2022-11-06T03:07:07.020Z,8.10
2022-11-06T03:11:15.016Z,8.00
2022-11-06T03:15:23.007Z,7.80
2022-11-06T03:19:49.459Z,7.80
2022-11-06T03:23:56.854Z,7.70
2022-11-06T03:28:11.425Z,7.80
2022-11-06T03:32:31.754Z,7.70
2022-11-06T03:36:41.349Z,7.60
2022-11-06T03:40:46.220Z,7.60
2022-11-06T03:44:51.088Z,7.60
2022-11-06T03:49:02.057Z,7.50
2022-11-06T03:53:16.028Z,7.40
2022-11-06T03:57:23.982Z,7.40
2022-11-06T04:01:28.914Z,7.40
2022-11-06T04:05:45.433Z,7.40
2022-11-06T04:10:09.047Z,7.60
2022-11-06T04:14:13.298Z,7.60
2022-11-06T04:18:21.177Z,7.40
2022-11-06T04:22:37.773Z,7.40
2022-11-06T04:27:01.686Z,7.40
2022-11-06T04:31:15.792Z,7.40
2022-11-06T04:35:32.999Z,7.40
2022-11-06T04:39:44.237Z,7.40
2022-11-06T04:43:55.143Z,7.30
2022-11-06T04:47:58.117Z,7.30
2022-11-06T04:52:03.007Z,7.20
2022-11-06T04:56:10.562Z,7.20
2022-11-06T05:00:13.852Z,7.10
2022-11-06T05:04:14.992Z,7.00
2022-11-06T05:08:18.179Z,7.00
2022-11-06T05:12:19.257Z,7.00
2022-11-06T05:16:20.310Z,7.00
2022-11-06T05:20:21.392Z,6.90
2022-11-06T05:24:22.489Z,6.90
2022-11-06T05:28:23.686Z,6.80
2022-11-06T05:32:24.858Z,6.90
2022-11-06T05:36:25.923Z,6.80
2022-11-06T05:40:27.240Z,6.70
2022-11-06T05:44:28.413Z,6.70
2022-11-06T05:51:08.407Z,6.70
2022-11-06T05:55:14.419Z,6.70
2022-11-06T05:59:13.167Z,6.60
2022-11-06T06:03:14.508Z,6.70
2022-11-06T06:07:15.633Z,6.70
2022-11-06T06:11:17.012Z,6.70
2022-11-06T06:15:18.168Z,6.60
2022-11-06T06:19:20.039Z,6.60
2022-11-06T06:23:21.221Z,6.50
2022-11-06T06:27:22.560Z,6.50
2022-11-06T06:31:23.767Z,6.60
2022-11-06T06:35:24.958Z,6.50
2022-11-06T06:39:26.153Z,6.60
2022-11-06T06:43:27.302Z,6.60
2022-11-06T06:47:28.439Z,6.70
2022-11-06T06:51:29.770Z,6.70
2022-11-06T06:55:31.089Z,6.70
2022-11-06T06:59:32.288Z,6.60
2022-11-06T07:03:34.732Z,6.70
2022-11-06T07:07:35.951Z,6.70
2022-11-06T07:11:37.307Z,6.90
2022-11-06T07:15:38.597Z,7.10
2022-11-06T07:19:39.798Z,7.20
2022-11-06T07:23:40.980Z,7.40
2022-11-06T07:27:42.102Z,7.80
2022-11-06T07:31:43.195Z,8.20
2022-11-06T07:35:44.310Z,8.60
2022-11-06T07:39:45.522Z,8.90
2022-11-06T07:43:48.758Z,9.30
2022-11-06T07:47:52.007Z,9.60
2022-11-06T07:51:52.937Z,9.90
2022-11-06T07:55:55.723Z,10.40
2022-11-06T07:59:56.929Z,10.70
2022-11-06T08:03:58.049Z,10.90
2022-11-06T08:07:59.253Z,10.80
2022-11-06T08:12:01.151Z,11.30
2022-11-06T08:16:04.560Z,11.90
2022-11-06T08:20:07.629Z,12.20
2022-11-06T08:24:09.555Z,12.30
2022-11-06T08:28:11.062Z,12.50
2022-11-06T08:32:12.547Z,12.40
2022-11-06T08:36:13.869Z,12.60
2022-11-06T08:40:15.309Z,12.70
2022-11-06T08:44:16.760Z,13.00
2022-11-06T08:48:17.957Z,13.40
2022-11-06T08:52:19.235Z,13.60
2022-11-06T08:56:20.333Z,14.10
2022-11-06T09:00:21.907Z,14.10
2022-11-06T09:04:23.048Z,14.50
2022-11-06T09:08:24.237Z,14.40
2022-11-06T09:12:25.486Z,14.80
2022-11-06T09:16:26.742Z,15.10
2022-11-06T09:20:28.259Z,15.30
2022-11-06T09:24:57.099Z,15.30
2022-11-06T09:28:32.362Z,15.40
2022-11-06T09:32:33.483Z,15.20
2022-11-06T09:36:35.625Z,15.50
2022-11-06T09:40:40.635Z,15.60
2022-11-06T09:44:48.184Z,15.80
2022-11-06T09:49:02.029Z,15.60
2022-11-06T09:53:19.528Z,15.40
2022-11-06T09:57:28.396Z,15.40
2022-11-06T10:01:39.526Z,15.20
2022-11-06T10:05:41.754Z,15.00
2022-11-06T10:09:42.923Z,14.90
2022-11-06T10:14:04.783Z,13.80
2022-11-06T10:18:12.952Z,13.70
2022-11-06T10:22:24.360Z,14.40
2022-11-06T10:26:40.574Z,14.50
2022-11-06T10:30:51.357Z,14.70
2022-11-06T10:34:59.724Z,14.50
2022-11-06T10:39:04.138Z,14.40
2022-11-06T10:43:29.252Z,14.50
2022-11-06T10:47:37.242Z,14.70
2022-11-06T10:51:51.296Z,14.60
2022-11-06T10:56:19.968Z,14.50
2022-11-06T11:00:17.761Z,14.80
2022-11-06T11:04:19.050Z,14.90
2022-11-06T11:08:30.004Z,15.10
2022-11-06T11:12:32.233Z,15.40
2022-11-06T11:16:36.931Z,15.50
2022-11-06T11:20:47.021Z,15.30
2022-11-06T11:25:02.234Z,15.40
2022-11-06T11:29:13.066Z,15.00
2022-11-06T11:33:14.243Z,15.10
2022-11-06T11:37:25.234Z,15.10
2022-11-06T11:41:26.546Z,15.20
2022-11-06T11:45:27.746Z,15.40
2022-11-06T11:49:32.483Z,15.50
2022-11-06T11:53:33.988Z,15.40
2022-11-06T11:57:35.192Z,14.90
2022-11-06T12:01:40.786Z,15.20
2022-11-06T12:05:42.175Z,15.50
2022-11-06T12:09:44.392Z,15.30
2022-11-06T12:13:58.524Z,14.90
2022-11-06T12:18:08.835Z,14.70
2022-11-06T12:22:13.828Z,14.30
2022-11-06T12:26:27.550Z,13.80
2022-11-06T12:30:32.121Z,13.70
2022-11-06T12:34:49.833Z,13.90
2022-11-06T12:38:54.823Z,13.80
2022-11-06T12:43:05.970Z,13.80
2022-11-06T12:47:33.582Z,13.90
2022-11-06T12:51:41.373Z,14.10
2022-11-06T12:55:54.521Z,14.40
2022-11-06T13:00:12.672Z,14.60
2022-11-06T13:04:20.923Z,14.40
2022-11-06T13:08:52.384Z,14.40
2022-11-06T13:13:30.757Z,14.40
2022-11-06T13:17:35.734Z,14.40
2022-11-06T13:21:56.045Z,14.40
2022-11-06T13:26:20.385Z,14.10
2022-11-06T13:30:23.876Z,14.00
2022-11-06T13:34:37.279Z,14.40
2022-11-06T13:38:54.573Z,14.40
2022-11-06T13:43:11.203Z,14.30
2022-11-06T13:47:16.121Z,14.10
2022-11-06T13:51:27.175Z,14.10
2022-11-06T13:55:35.212Z,14.00
2022-11-06T13:59:49.344Z,13.90
2022-11-06T14:04:15.151Z,13.80
2022-11-06T14:08:29.141Z,13.80
2022-11-06T14:12:30.306Z,13.70
2022-11-06T14:16:36.816Z,13.70
2022-11-06T14:20:39.418Z,13.90
2022-11-06T14:24:42.137Z,13.80
2022-11-06T14:28:43.657Z,13.80
2022-11-06T14:32:47.251Z,13.60
2022-11-06T14:36:49.426Z,13.50
2022-11-06T14:40:50.535Z,13.20
2022-11-06T14:45:09.783Z,13.10
2022-11-06T14:49:17.740Z,13.00
2022-11-06T14:53:22.749Z,13.00
2022-11-06T14:57:37.100Z,12.90
2022-11-06T15:01:38.348Z,12.90
2022-11-06T15:05:46.002Z,12.90
2022-11-06T15:09:49.134Z,12.80
2022-11-06T15:13:50.256Z,12.70
2022-11-06T15:17:51.685Z,12.80
2022-11-06T15:22:21.302Z,12.80
2022-11-06T15:26:25.796Z,13.00
2022-11-06T15:30:28.591Z,12.90
2022-11-06T15:34:45.195Z,12.90
2022-11-06T15:38:46.386Z,13.10
2022-11-06T15:42:47.890Z,13.10
2022-11-06T15:46:57.489Z,13.00
2022-11-06T15:50:58.658Z,12.80
2022-11-06T15:54:59.960Z,12.60
2022-11-06T15:59:11.062Z,12.60
2022-11-06T16:03:16.233Z,12.70
2022-11-06T16:07:18.953Z,12.80
2022-11-06T16:11:20.522Z,12.90
2022-11-06T16:15:48.379Z,12.80
2022-11-06T16:19:50.269Z,12.90
2022-11-06T16:24:04.036Z,13.00
2022-11-06T16:28:20.841Z,12.90
2022-11-06T16:32:25.800Z,12.90
2022-11-06T16:36:29.703Z,12.90
2022-11-06T16:40:49.645Z,13.10
2022-11-06T16:44:53.143Z,13.00
2022-11-06T16:48:54.322Z,12.90
2022-11-06T16:52:55.491Z,12.90
2022-11-06T16:57:12.666Z,12.80
2022-11-06T17:01:20.125Z,12.80
2022-11-06T17:05:21.976Z,12.80
2022-11-06T17:09:27.262Z,12.70
2022-11-06T17:13:32.842Z,12.80
2022-11-06T17:17:37.682Z,13.00
2022-11-06T17:21:37.146Z,13.10
2022-11-06T17:25:38.215Z,12.90
2022-11-06T17:29:39.300Z,12.90
2022-11-06T17:33:41.806Z,12.90
2022-11-06T17:37:42.961Z,12.90
2022-11-06T17:41:44.293Z,12.70
2022-11-06T17:45:47.580Z,12.70
2022-11-06T17:49:48.753Z,12.60
2022-11-06T17:53:49.834Z,12.70
2022-11-06T17:57:50.923Z,12.40
2022-11-06T18:01:53.372Z,12.10
2022-11-06T18:05:54.570Z,12.10
2022-11-06T18:09:55.643Z,12.00
2022-11-06T18:13:57.038Z,11.70
2022-11-06T18:17:58.293Z,11.70
2022-11-06T18:22:03.943Z,11.60
2022-11-06T18:26:03.192Z,11.50
2022-11-06T18:30:04.980Z,11.40
2022-11-06T18:34:06.649Z,11.40
2022-11-06T18:38:09.226Z,11.40
2022-11-06T18:42:10.285Z,11.50
2022-11-06T18:46:13.891Z,11.30
2022-11-06T18:50:15.154Z,11.30
2022-11-06T18:54:16.382Z,11.30
2022-11-06T18:58:19.612Z,11.30
2022-11-06T19:02:20.891Z,11.40
2022-11-06T19:06:22.149Z,11.50
2022-11-06T19:10:23.550Z,11.60
2022-11-06T19:14:24.755Z,11.60
2022-11-06T19:18:30.014Z,11.70
2022-11-06T19:22:33.036Z,11.90
2022-11-06T19:26:35.237Z,11.80
2022-11-06T19:30:36.682Z,11.60
2022-11-06T19:34:39.376Z,11.30
2022-11-06T19:38:40.926Z,11.20
2022-11-06T19:42:42.051Z,11.30
2022-11-06T19:46:43.129Z,11.40
2022-11-06T19:50:59.272Z,11.30
2022-11-06T19:54:49.445Z,11.20
2022-11-06T19:58:51.422Z,11.10
2022-11-06T20:02:52.586Z,11.20
2022-11-06T20:06:53.757Z,11.10
2022-11-06T20:11:07.266Z,11.30
2022-11-06T20:15:09.155Z,11.20
2022-11-06T20:19:10.293Z,11.10
2022-11-06T20:23:11.612Z,10.90
2022-11-06T20:27:13.285Z,11.00
2022-11-06T20:31:17.894Z,10.90
2022-11-06T20:35:19.376Z,11.00
2022-11-06T20:39:20.564Z,11.00
2022-11-06T20:43:21.792Z,10.90
2022-11-06T20:47:22.864Z,10.90
2022-11-06T20:51:26.455Z,10.70
2022-11-06T20:55:28.326Z,10.70
2022-11-06T20:59:30.398Z,10.80
2022-11-06T21:03:32.302Z,10.60
2022-11-06T21:07:34.753Z,10.80
2022-11-06T21:11:36.099Z,11.00
2022-11-06T21:15:37.323Z,10.80
2022-11-06T21:19:38.389Z,10.70
2022-11-06T21:23:40.339Z,10.80
2022-11-06T21:27:41.417Z,10.80
2022-11-06T21:31:49.082Z,11.00
2022-11-06T21:35:47.515Z,10.90
2022-11-06T21:39:48.659Z,11.10
2022-11-06T21:43:49.816Z,11.20
2022-11-06T21:47:50.914Z,11.20
2022-11-06T21:51:52.126Z,11.20
2022-11-06T21:55:59.202Z,11.30
2022-11-06T22:00:00.923Z,11.30
2022-11-06T22:04:02.156Z,11.20
2022-11-06T22:08:03.588Z,11.20
2022-11-06T22:12:05.858Z,11.20
2022-11-06T22:16:08.301Z,11.20
2022-11-06T22:20:10.714Z,11.30
2022-11-06T22:24:13.490Z,11.20
2022-11-06T22:28:14.671Z,11.20
2022-11-06T22:32:15.731Z,11.20
2022-11-06T22:36:18.692Z,11.20
2022-11-06T22:40:19.786Z,11.40
2022-11-06T22:44:21.283Z,11.30
2022-11-06T22:48:22.554Z,11.20
2022-11-06T22:52:23.771Z,11.00
2022-11-06T22:56:26.446Z,11.10
2022-11-06T23:00:27.531Z,11.10
2022-11-06T23:04:28.607Z,11.10
2022-11-06T23:08:30.095Z,11.20
2022-11-06T23:12:31.162Z,11.20
2022-11-06T23:16:50.711Z,11.10
2022-11-06T23:20:51.889Z,11.00
2022-11-06T23:24:54.023Z,10.90
2022-11-06T23:28:56.019Z,11.10
2022-11-06T23:32:57.281Z,11.10
2022-11-06T23:36:58.476Z,11.30
2022-11-06T23:41:07.499Z,11.30
2022-11-06T23:45:29.649Z,11.20
2022-11-06T23:49:30.798Z,11.10
2022-11-06T23:53:31.963Z,11.20
2022-11-06T23:57:33.116Z,11.10
